메인 페이지
METAR-TAF:

METAR-TAF

공항 :

John Wayne-Orange County Airport

샌타애나, 캘리포니아, 미국

위도: 33-40-48N, 경도: 117-51-59W, 고도: 16m

현재 날씨관측

예보는 24분 전, 18:53시(UTC)에 발표되었습니다.
여러 방향의 바람 3kt
온도 21°C
습도 60%
기압 1016 hPa
시정: 16.1km
고도 2400ft 상공 구름 조금

METAR: KSNA 131853Z VRB03KT 10SM FEW024 21/13 A2999 RMK AO2 SLP152 T02110128 $

시각: 12:17 (19:17 UTC)

예보

예보는 1 시간 53분 전, 17:24시(UTC)에 발표되었습니다.
예보 대상 시간: 13일 18시부터 14일 18시까지 (UTC)
남서9kt
시정: 10km
고도 2500ft 상공 구름 조금
14일 0200시부터 (UTC)
서남서5kt
시정: 10km
고도 1800ft 상공 구름 보통
14일 0600시부터 (UTC)
여러 방향의 바람 4kt
시정: 10km
고도 1300ft 상공 구름 많음
14일 0900시부터 (UTC)
여러 방향의 바람 3kt
시정: 10km
고도 900ft 상공 흐림

TAF: KSNA 131724Z 1318/1418 22009KT P6SM FEW025 FM140200 24005KT P6SM SCT018 FM140600 VRB04KT P6SM BKN013 FM140900 VRB03KT P6SM OVC009

4,000개 이상의 공항 관측 자료 및 예보 (METAR 및 TAF 보고).

지도상에서 검색 가능한 기상관측소가 노란 점과 빨간 점으로 표시되어 있습니다.

기상관측소 명을 보려면 표시 위로 마우스를 이동하세요.

날씨 관측과 예보를 보려면 클릭하세요.

지도 변경 : 확대하려면 엑스 표시가 있는 녹색 버튼, 축소하려면 빼기 표시가 있는 녹색 버튼, 다음 페이지의 지도를 보려면 녹색 화살표를 클릭하세요.


METAR-TAF: